sensor_id;sensor_type;location;lat;lon;timestamp;temperature;humidity
17092;DHT22;8661;45.700;4.880;2022-10-31T00:00:05;15.80;99.90
17092;DHT22;8661;45.700;4.880;2022-10-31T00:02:33;15.80;99.90
17092;DHT22;8661;45.700;4.880;2022-10-31T00:05:00;15.80;99.90
17092;DHT22;8661;45.700;4.880;2022-10-31T00:07:28;15.80;99.90
17092;DHT22;8661;45.700;4.880;2022-10-31T00:09:55;15.80;99.90
17092;DHT22;8661;45.700;4.880;2022-10-31T00:12:21;15.80;99.90
17092;DHT22;8661;45.700;4.880;2022-10-31T00:14:48;15.70;99.90
17092;DHT22;8661;45.700;4.880;2022-10-31T00:17:15;15.70;99.90
17092;DHT22;8661;45.700;4.880;2022-10-31T00:19:42;15.70;99.90
17092;DHT22;8661;45.700;4.880;2022-10-31T00:22:09;15.70;99.90
17092;DHT22;8661;45.700;4.880;2022-10-31T00:24:37;15.70;99.90
17092;DHT22;8661;45.700;4.880;2022-10-31T00:27:04;15.60;99.90
17092;DHT22;8661;45.700;4.880;2022-10-31T00:29:31;15.60;99.90
17092;DHT22;8661;45.700;4.880;2022-10-31T00:31:58;15.60;99.90
17092;DHT22;8661;45.700;4.880;2022-10-31T00:34:24;15.50;99.90
17092;DHT22;8661;45.700;4.880;2022-10-31T00:36:51;15.50;99.90
17092;DHT22;8661;45.700;4.880;2022-10-31T00:39:18;15.50;99.90
17092;DHT22;8661;45.700;4.880;2022-10-31T00:41:46;15.40;99.90
17092;DHT22;8661;45.700;4.880;2022-10-31T00:44:13;15.50;99.90
17092;DHT22;8661;45.700;4.880;2022-10-31T00:46:40;15.40;99.90
17092;DHT22;8661;45.700;4.880;2022-10-31T00:49:07;15.40;99.90
17092;DHT22;8661;45.700;4.880;2022-10-31T00:51:34;15.40;99.90
17092;DHT22;8661;45.700;4.880;2022-10-31T00:54:00;15.40;99.90
17092;DHT22;8661;45.700;4.880;2022-10-31T00:56:27;15.40;99.90
17092;DHT22;8661;45.700;4.880;2022-10-31T00:58:56;15.40;99.90
17092;DHT22;8661;45.700;4.880;2022-10-31T01:01:22;15.40;99.90
17092;DHT22;8661;45.700;4.880;2022-10-31T01:03:49;15.40;99.90
17092;DHT22;8661;45.700;4.880;2022-10-31T01:06:16;15.40;99.90
17092;DHT22;8661;45.700;4.880;2022-10-31T01:08:44;15.40;99.90
17092;DHT22;8661;45.700;4.880;2022-10-31T01:11:13;15.30;99.90
17092;DHT22;8661;45.700;4.880;2022-10-31T01:13:41;15.30;99.90
17092;DHT22;8661;45.700;4.880;2022-10-31T01:16:12;15.30;99.90
17092;DHT22;8661;45.700;4.880;2022-10-31T01:18:39;15.30;99.90
17092;DHT22;8661;45.700;4.880;2022-10-31T01:21:07;15.30;99.90
17092;DHT22;8661;45.700;4.880;2022-10-31T01:23:35;15.20;99.90
17092;DHT22;8661;45.700;4.880;2022-10-31T01:26:04;15.20;99.90
17092;DHT22;8661;45.700;4.880;2022-10-31T01:28:31;15.20;99.90
17092;DHT22;8661;45.700;4.880;2022-10-31T01:31:00;15.20;99.90
17092;DHT22;8661;45.700;4.880;2022-10-31T01:33:29;15.20;99.90
17092;DHT22;8661;45.700;4.880;2022-10-31T01:35:56;15.20;99.90
17092;DHT22;8661;45.700;4.880;2022-10-31T01:38:23;15.20;99.90
17092;DHT22;8661;45.700;4.880;2022-10-31T01:40:51;15.20;99.90
17092;DHT22;8661;45.700;4.880;2022-10-31T01:43:18;15.20;99.90
17092;DHT22;8661;45.700;4.880;2022-10-31T01:45:48;15.20;99.90
17092;DHT22;8661;45.700;4.880;2022-10-31T01:48:20;15.20;99.90
17092;DHT22;8661;45.700;4.880;2022-10-31T01:50:51;15.10;99.90
17092;DHT22;8661;45.700;4.880;2022-10-31T01:53:20;15.10;99.90
17092;DHT22;8661;45.700;4.880;2022-10-31T01:55:47;15.10;99.90
17092;DHT22;8661;45.700;4.880;2022-10-31T01:58:17;15.10;99.90
17092;DHT22;8661;45.700;4.880;2022-10-31T02:00:47;15.10;99.90
17092;DHT22;8661;45.700;4.880;2022-10-31T02:03:15;15.00;99.90
17092;DHT22;8661;45.700;4.880;2022-10-31T02:05:43;15.00;99.90
17092;DHT22;8661;45.700;4.880;2022-10-31T02:08:16;15.00;99.90
17092;DHT22;8661;45.700;4.880;2022-10-31T02:10:45;14.90;99.90
17092;DHT22;8661;45.700;4.880;2022-10-31T02:13:12;14.90;99.90
17092;DHT22;8661;45.700;4.880;2022-10-31T02:15:40;14.80;99.90
17092;DHT22;8661;45.700;4.880;2022-10-31T02:18:07;14.90;99.90
17092;DHT22;8661;45.700;4.880;2022-10-31T02:20:42;14.80;99.90
17092;DHT22;8661;45.700;4.880;2022-10-31T02:26:41;14.70;99.90
17092;DHT22;8661;45.700;4.880;2022-10-31T02:32:25;14.60;99.90
17092;DHT22;8661;45.700;4.880;2022-10-31T02:34:58;14.60;99.90
17092;DHT22;8661;45.700;4.880;2022-10-31T02:37:29;14.60;99.90
17092;DHT22;8661;45.700;4.880;2022-10-31T02:40:04;14.50;99.90
17092;DHT22;8661;45.700;4.880;2022-10-31T02:42:33;14.50;99.90
17092;DHT22;8661;45.700;4.880;2022-10-31T02:45:08;14.50;99.90
17092;DHT22;8661;45.700;4.880;2022-10-31T02:47:41;14.50;99.90
17092;DHT22;8661;45.700;4.880;2022-10-31T02:50:14;14.50;99.90
17092;DHT22;8661;45.700;4.880;2022-10-31T02:52:42;14.50;99.90
17092;DHT22;8661;45.700;4.880;2022-10-31T02:55:11;14.60;99.90
17092;DHT22;8661;45.700;4.880;2022-10-31T02:57:40;14.60;99.90
17092;DHT22;8661;45.700;4.880;2022-10-31T03:00:09;14.60;99.90
17092;DHT22;8661;45.700;4.880;2022-10-31T03:02:49;14.70;99.90
17092;DHT22;8661;45.700;4.880;2022-10-31T03:08:11;14.90;99.90
17092;DHT22;8661;45.700;4.880;2022-10-31T03:10:43;14.90;99.90
17092;DHT22;8661;45.700;4.880;2022-10-31T03:13:18;15.00;99.90
17092;DHT22;8661;45.700;4.880;2022-10-31T03:15:50;15.00;99.90
17092;DHT22;8661;45.700;4.880;2022-10-31T03:18:22;15.00;99.90
17092;DHT22;8661;45.700;4.880;2022-10-31T03:20:55;15.00;99.90
17092;DHT22;8661;45.700;4.880;2022-10-31T03:23:26;14.90;99.90
17092;DHT22;8661;45.700;4.880;2022-10-31T03:25:54;14.90;99.90
17092;DHT22;8661;45.700;4.880;2022-10-31T03:28:25;14.80;99.90
17092;DHT22;8661;45.700;4.880;2022-10-31T03:30:54;14.80;99.90
17092;DHT22;8661;45.700;4.880;2022-10-31T03:33:27;14.70;99.90
17092;DHT22;8661;45.700;4.880;2022-10-31T03:35:57;14.70;99.90
17092;DHT22;8661;45.700;4.880;2022-10-31T03:38:26;14.70;99.90
17092;DHT22;8661;45.700;4.880;2022-10-31T03:40:55;14.70;99.90
17092;DHT22;8661;45.700;4.880;2022-10-31T03:43:28;14.70;99.90
17092;DHT22;8661;45.700;4.880;2022-10-31T03:45:56;14.70;99.90
17092;DHT22;8661;45.700;4.880;2022-10-31T03:48:25;14.70;99.90
17092;DHT22;8661;45.700;4.880;2022-10-31T03:51:00;14.60;99.90
17092;DHT22;8661;45.700;4.880;2022-10-31T03:53:33;14.60;99.90
17092;DHT22;8661;45.700;4.880;2022-10-31T03:56:02;14.60;99.90
17092;DHT22;8661;45.700;4.880;2022-10-31T03:58:36;14.50;99.90
17092;DHT22;8661;45.700;4.880;2022-10-31T04:01:06;14.50;99.90
17092;DHT22;8661;45.700;4.880;2022-10-31T04:03:38;14.50;99.90
17092;DHT22;8661;45.700;4.880;2022-10-31T04:06:08;14.50;99.90
17092;DHT22;8661;45.700;4.880;2022-10-31T04:08:39;14.50;99.90
17092;DHT22;8661;45.700;4.880;2022-10-31T04:11:08;14.40;99.90
17092;DHT22;8661;45.700;4.880;2022-10-31T04:13:37;14.40;99.90
17092;DHT22;8661;45.700;4.880;2022-10-31T04:16:05;14.40;99.90
17092;DHT22;8661;45.700;4.880;2022-10-31T04:18:33;14.30;99.90
17092;DHT22;8661;45.700;4.880;2022-10-31T04:21:03;14.30;99.90
17092;DHT22;8661;45.700;4.880;2022-10-31T04:23:30;14.30;99.90
17092;DHT22;8661;45.700;4.880;2022-10-31T04:25:57;14.30;99.90
17092;DHT22;8661;45.700;4.880;2022-10-31T04:28:24;14.30;99.90
17092;DHT22;8661;45.700;4.880;2022-10-31T04:30:51;14.20;99.90
17092;DHT22;8661;45.700;4.880;2022-10-31T04:33:18;14.20;99.90
17092;DHT22;8661;45.700;4.880;2022-10-31T04:35:45;14.20;99.90
17092;DHT22;8661;45.700;4.880;2022-10-31T04:38:14;14.20;99.90
17092;DHT22;8661;45.700;4.880;2022-10-31T04:40:40;14.20;99.90
17092;DHT22;8661;45.700;4.880;2022-10-31T04:43:07;14.10;99.90
17092;DHT22;8661;45.700;4.880;2022-10-31T04:45:34;14.10;99.90
17092;DHT22;8661;45.700;4.880;2022-10-31T04:48:01;14.10;99.90
17092;DHT22;8661;45.700;4.880;2022-10-31T04:50:28;14.10;99.90
17092;DHT22;8661;45.700;4.880;2022-10-31T04:52:54;14.10;99.90
17092;DHT22;8661;45.700;4.880;2022-10-31T04:55:23;14.00;99.90
17092;DHT22;8661;45.700;4.880;2022-10-31T04:57:50;14.00;99.90
17092;DHT22;8661;45.700;4.880;2022-10-31T05:00:18;14.00;99.90
17092;DHT22;8661;45.700;4.880;2022-10-31T05:02:45;14.00;99.90
17092;DHT22;8661;45.700;4.880;2022-10-31T05:05:13;14.00;99.90
17092;DHT22;8661;45.700;4.880;2022-10-31T05:07:41;14.00;99.90
17092;DHT22;8661;45.700;4.880;2022-10-31T05:10:08;14.00;99.90
17092;DHT22;8661;45.700;4.880;2022-10-31T05:12:37;14.00;99.90
17092;DHT22;8661;45.700;4.880;2022-10-31T05:15:05;14.00;99.90
17092;DHT22;8661;45.700;4.880;2022-10-31T05:17:32;14.10;99.90
17092;DHT22;8661;45.700;4.880;2022-10-31T05:19:59;14.10;99.90
17092;DHT22;8661;45.700;4.880;2022-10-31T05:22:26;14.10;99.90
17092;DHT22;8661;45.700;4.880;2022-10-31T05:24:52;14.10;99.90
17092;DHT22;8661;45.700;4.880;2022-10-31T05:27:28;14.10;99.90
17092;DHT22;8661;45.700;4.880;2022-10-31T05:29:56;14.10;99.90
17092;DHT22;8661;45.700;4.880;2022-10-31T05:32:23;14.10;99.90
17092;DHT22;8661;45.700;4.880;2022-10-31T05:34:50;14.10;99.90
17092;DHT22;8661;45.700;4.880;2022-10-31T05:37:17;14.20;99.90
17092;DHT22;8661;45.700;4.880;2022-10-31T05:39:44;14.20;99.90
17092;DHT22;8661;45.700;4.880;2022-10-31T05:42:10;14.20;99.90
17092;DHT22;8661;45.700;4.880;2022-10-31T05:44:37;14.20;99.90
17092;DHT22;8661;45.700;4.880;2022-10-31T05:47:06;14.20;99.90
17092;DHT22;8661;45.700;4.880;2022-10-31T05:49:33;14.20;99.90
17092;DHT22;8661;45.700;4.880;2022-10-31T05:51:59;14.30;99.90
17092;DHT22;8661;45.700;4.880;2022-10-31T05:54:26;14.30;99.90
17092;DHT22;8661;45.700;4.880;2022-10-31T05:56:53;14.40;99.90
17092;DHT22;8661;45.700;4.880;2022-10-31T05:59:20;14.50;99.90
17092;DHT22;8661;45.700;4.880;2022-10-31T06:01:47;14.50;99.90
17092;DHT22;8661;45.700;4.880;2022-10-31T06:04:16;14.50;99.90
17092;DHT22;8661;45.700;4.880;2022-10-31T06:06:44;14.50;99.90
17092;DHT22;8661;45.700;4.880;2022-10-31T06:09:11;14.50;99.90
17092;DHT22;8661;45.700;4.880;2022-10-31T06:11:38;14.50;99.90
17092;DHT22;8661;45.700;4.880;2022-10-31T06:14:05;14.50;99.90
17092;DHT22;8661;45.700;4.880;2022-10-31T06:16:32;14.50;99.90
17092;DHT22;8661;45.700;4.880;2022-10-31T06:19:00;14.50;99.90
17092;DHT22;8661;45.700;4.880;2022-10-31T06:21:29;14.50;99.90
17092;DHT22;8661;45.700;4.880;2022-10-31T06:23:56;14.60;99.90
17092;DHT22;8661;45.700;4.880;2022-10-31T06:26:22;14.60;99.90
17092;DHT22;8661;45.700;4.880;2022-10-31T06:28:49;14.60;99.90
17092;DHT22;8661;45.700;4.880;2022-10-31T06:31:16;14.60;99.90
17092;DHT22;8661;45.700;4.880;2022-10-31T06:33:43;14.60;99.90
17092;DHT22;8661;45.700;4.880;2022-10-31T06:36:10;14.60;99.90
17092;DHT22;8661;45.700;4.880;2022-10-31T06:38:40;14.60;99.90
17092;DHT22;8661;45.700;4.880;2022-10-31T06:41:09;14.60;99.90
17092;DHT22;8661;45.700;4.880;2022-10-31T06:43:35;14.70;99.90
17092;DHT22;8661;45.700;4.880;2022-10-31T06:46:03;14.70;99.90
17092;DHT22;8661;45.700;4.880;2022-10-31T06:48:31;14.70;99.90
17092;DHT22;8661;45.700;4.880;2022-10-31T06:50:58;14.80;99.90
17092;DHT22;8661;45.700;4.880;2022-10-31T06:53:26;14.80;99.90
17092;DHT22;8661;45.700;4.880;2022-10-31T06:55:57;14.80;99.90
17092;DHT22;8661;45.700;4.880;2022-10-31T06:58:24;14.80;99.90
17092;DHT22;8661;45.700;4.880;2022-10-31T07:00:51;14.90;99.90
17092;DHT22;8661;45.700;4.880;2022-10-31T07:03:18;14.90;99.90
17092;DHT22;8661;45.700;4.880;2022-10-31T07:05:46;14.90;99.90
17092;DHT22;8661;45.700;4.880;2022-10-31T07:08:13;14.90;99.90
17092;DHT22;8661;45.700;4.880;2022-10-31T07:10:41;15.00;99.90
17092;DHT22;8661;45.700;4.880;2022-10-31T07:13:12;15.10;99.90
17092;DHT22;8661;45.700;4.880;2022-10-31T07:15:40;15.20;99.90
17092;DHT22;8661;45.700;4.880;2022-10-31T07:18:08;15.30;99.90
17092;DHT22;8661;45.700;4.880;2022-10-31T07:20:36;15.30;99.90
17092;DHT22;8661;45.700;4.880;2022-10-31T07:23:03;15.40;99.90
17092;DHT22;8661;45.700;4.880;2022-10-31T07:25:30;15.50;99.90
17092;DHT22;8661;45.700;4.880;2022-10-31T07:27:57;15.60;99.90
17092;DHT22;8661;45.700;4.880;2022-10-31T07:30:25;15.70;99.90
17092;DHT22;8661;45.700;4.880;2022-10-31T07:32:52;15.80;99.90
17092;DHT22;8661;45.700;4.880;2022-10-31T07:35:22;15.90;99.90
17092;DHT22;8661;45.700;4.880;2022-10-31T07:37:49;16.00;99.90
17092;DHT22;8661;45.700;4.880;2022-10-31T07:40:17;16.10;99.90
17092;DHT22;8661;45.700;4.880;2022-10-31T07:42:45;16.10;99.90
17092;DHT22;8661;45.700;4.880;2022-10-31T07:45:14;16.30;99.90
17092;DHT22;8661;45.700;4.880;2022-10-31T07:47:44;16.40;99.90
17092;DHT22;8661;45.700;4.880;2022-10-31T07:50:13;16.50;99.90
17092;DHT22;8661;45.700;4.880;2022-10-31T07:52:40;16.60;99.90
17092;DHT22;8661;45.700;4.880;2022-10-31T07:55:08;16.70;99.90
17092;DHT22;8661;45.700;4.880;2022-10-31T07:57:35;16.80;99.90
17092;DHT22;8661;45.700;4.880;2022-10-31T08:00:03;17.00;99.90
17092;DHT22;8661;45.700;4.880;2022-10-31T08:02:30;17.10;99.90
17092;DHT22;8661;45.700;4.880;2022-10-31T08:04:59;17.20;99.90
17092;DHT22;8661;45.700;4.880;2022-10-31T08:07:27;17.30;99.90
17092;DHT22;8661;45.700;4.880;2022-10-31T08:09:55;17.40;99.90
17092;DHT22;8661;45.700;4.880;2022-10-31T08:12:22;17.60;99.90
17092;DHT22;8661;45.700;4.880;2022-10-31T08:14:49;17.70;99.90
17092;DHT22;8661;45.700;4.880;2022-10-31T08:17:16;17.70;99.90
17092;DHT22;8661;45.700;4.880;2022-10-31T08:19:43;17.90;99.90
17092;DHT22;8661;45.700;4.880;2022-10-31T08:22:12;17.90;99.90
17092;DHT22;8661;45.700;4.880;2022-10-31T08:24:39;18.00;99.90
17092;DHT22;8661;45.700;4.880;2022-10-31T08:27:06;18.10;99.90
17092;DHT22;8661;45.700;4.880;2022-10-31T08:29:33;18.20;99.90
17092;DHT22;8661;45.700;4.880;2022-10-31T08:32:00;18.30;99.90
17092;DHT22;8661;45.700;4.880;2022-10-31T08:34:27;18.40;99.90
17092;DHT22;8661;45.700;4.880;2022-10-31T08:36:54;18.40;99.90
17092;DHT22;8661;45.700;4.880;2022-10-31T08:39:22;18.70;99.90
17092;DHT22;8661;45.700;4.880;2022-10-31T08:41:50;18.90;99.90
17092;DHT22;8661;45.700;4.880;2022-10-31T08:44:17;19.20;99.90
17092;DHT22;8661;45.700;4.880;2022-10-31T08:46:44;19.50;99.90
17092;DHT22;8661;45.700;4.880;2022-10-31T08:49:10;19.80;99.90
17092;DHT22;8661;45.700;4.880;2022-10-31T08:51:37;20.20;99.90
17092;DHT22;8661;45.700;4.880;2022-10-31T08:54:04;20.90;99.90
17092;DHT22;8661;45.700;4.880;2022-10-31T08:56:33;21.60;99.90
17092;DHT22;8661;45.700;4.880;2022-10-31T08:59:00;21.80;99.90
17092;DHT22;8661;45.700;4.880;2022-10-31T09:01:26;22.00;99.90
17092;DHT22;8661;45.700;4.880;2022-10-31T09:03:53;22.40;99.90
17092;DHT22;8661;45.700;4.880;2022-10-31T09:06:20;22.40;99.90
17092;DHT22;8661;45.700;4.880;2022-10-31T09:08:47;23.60;99.90
17092;DHT22;8661;45.700;4.880;2022-10-31T09:11:14;25.50;99.90
17092;DHT22;8661;45.700;4.880;2022-10-31T09:13:42;26.70;99.90
17092;DHT22;8661;45.700;4.880;2022-10-31T09:16:09;27.60;96.60
17092;DHT22;8661;45.700;4.880;2022-10-31T09:18:36;27.70;94.50
17092;DHT22;8661;45.700;4.880;2022-10-31T09:21:03;28.00;93.30
17092;DHT22;8661;45.700;4.880;2022-10-31T09:23:30;28.60;91.80
17092;DHT22;8661;45.700;4.880;2022-10-31T09:25:59;29.20;89.10
17092;DHT22;8661;45.700;4.880;2022-10-31T09:28:26;29.30;87.50
17092;DHT22;8661;45.700;4.880;2022-10-31T09:30:54;29.30;85.50
17092;DHT22;8661;45.700;4.880;2022-10-31T09:33:21;29.30;84.10
17092;DHT22;8661;45.700;4.880;2022-10-31T09:35:48;28.90;85.30
17092;DHT22;8661;45.700;4.880;2022-10-31T09:38:17;28.50;85.00
17092;DHT22;8661;45.700;4.880;2022-10-31T09:40:46;28.50;85.00
17092;DHT22;8661;45.700;4.880;2022-10-31T09:43:18;28.70;83.70
17092;DHT22;8661;45.700;4.880;2022-10-31T09:45:58;29.20;82.50
17092;DHT22;8661;45.700;4.880;2022-10-31T09:48:37;29.70;80.10
17092;DHT22;8661;45.700;4.880;2022-10-31T09:51:10;29.70;79.10
17092;DHT22;8661;45.700;4.880;2022-10-31T09:53:40;29.30;79.50
17092;DHT22;8661;45.700;4.880;2022-10-31T09:56:11;29.10;79.30
17092;DHT22;8661;45.700;4.880;2022-10-31T09:58:42;28.90;78.80
17092;DHT22;8661;45.700;4.880;2022-10-31T10:01:28;28.40;79.50
17092;DHT22;8661;45.700;4.880;2022-10-31T10:04:01;28.30;78.50
17092;DHT22;8661;45.700;4.880;2022-10-31T10:06:30;28.10;80.10
17092;DHT22;8661;45.700;4.880;2022-10-31T10:08:59;27.70;80.30
17092;DHT22;8661;45.700;4.880;2022-10-31T10:11:48;27.50;81.20
17092;DHT22;8661;45.700;4.880;2022-10-31T10:14:38;27.30;78.10
17092;DHT22;8661;45.700;4.880;2022-10-31T10:17:20;26.80;79.40
17092;DHT22;8661;45.700;4.880;2022-10-31T10:19:58;26.50;81.00
17092;DHT22;8661;45.700;4.880;2022-10-31T10:22:33;26.60;80.10
17092;DHT22;8661;45.700;4.880;2022-10-31T10:25:14;26.90;79.50
17092;DHT22;8661;45.700;4.880;2022-10-31T10:27:49;26.80;78.10
17092;DHT22;8661;45.700;4.880;2022-10-31T10:30:27;27.10;78.10
17092;DHT22;8661;45.700;4.880;2022-10-31T10:33:00;27.00;76.50
17092;DHT22;8661;45.700;4.880;2022-10-31T10:35:31;26.70;75.70
17092;DHT22;8661;45.700;4.880;2022-10-31T10:38:03;26.60;76.50
17092;DHT22;8661;45.700;4.880;2022-10-31T10:40:35;27.20;74.70
17092;DHT22;8661;45.700;4.880;2022-10-31T10:43:19;27.20;74.70
17092;DHT22;8661;45.700;4.880;2022-10-31T10:45:50;28.00;73.10
17092;DHT22;8661;45.700;4.880;2022-10-31T10:48:42;28.70;70.70
17092;DHT22;8661;45.700;4.880;2022-10-31T10:51:21;28.90;68.80
17092;DHT22;8661;45.700;4.880;2022-10-31T10:56:50;29.40;67.40
17092;DHT22;8661;45.700;4.880;2022-10-31T10:59:21;29.30;66.90
17092;DHT22;8661;45.700;4.880;2022-10-31T11:01:49;29.60;67.40
17092;DHT22;8661;45.700;4.880;2022-10-31T11:04:31;29.70;67.40
17092;DHT22;8661;45.700;4.880;2022-10-31T11:07:03;30.40;64.50
17092;DHT22;8661;45.700;4.880;2022-10-31T11:09:30;30.50;64.10
17092;DHT22;8661;45.700;4.880;2022-10-31T11:11:58;29.80;64.80
17092;DHT22;8661;45.700;4.880;2022-10-31T11:14:26;29.50;65.30
17092;DHT22;8661;45.700;4.880;2022-10-31T11:17:06;29.40;65.70
17092;DHT22;8661;45.700;4.880;2022-10-31T11:19:36;29.70;65.60
17092;DHT22;8661;45.700;4.880;2022-10-31T11:22:07;29.30;65.00
17092;DHT22;8661;45.700;4.880;2022-10-31T11:24:38;29.20;65.50
17092;DHT22;8661;45.700;4.880;2022-10-31T11:27:16;29.20;66.00
17092;DHT22;8661;45.700;4.880;2022-10-31T11:29:44;28.80;66.20
17092;DHT22;8661;45.700;4.880;2022-10-31T11:32:20;28.00;66.50
17092;DHT22;8661;45.700;4.880;2022-10-31T11:34:51;28.00;66.80
17092;DHT22;8661;45.700;4.880;2022-10-31T11:37:22;27.80;68.20
17092;DHT22;8661;45.700;4.880;2022-10-31T11:39:52;27.80;68.60
17092;DHT22;8661;45.700;4.880;2022-10-31T11:42:22;28.00;68.00
17092;DHT22;8661;45.700;4.880;2022-10-31T11:44:50;28.20;67.80
17092;DHT22;8661;45.700;4.880;2022-10-31T11:47:24;28.20;67.90
17092;DHT22;8661;45.700;4.880;2022-10-31T11:49:53;27.90;67.90
17092;DHT22;8661;45.700;4.880;2022-10-31T11:52:23;27.50;69.70
17092;DHT22;8661;45.700;4.880;2022-10-31T11:54:54;26.80;69.40
17092;DHT22;8661;45.700;4.880;2022-10-31T11:57:26;26.30;70.90
17092;DHT22;8661;45.700;4.880;2022-10-31T11:59:55;25.90;72.30
17092;DHT22;8661;45.700;4.880;2022-10-31T12:02:23;25.90;72.80
17092;DHT22;8661;45.700;4.880;2022-10-31T12:04:57;25.90;72.80
17092;DHT22;8661;45.700;4.880;2022-10-31T12:07:25;25.60;73.10
17092;DHT22;8661;45.700;4.880;2022-10-31T12:09:52;25.50;74.70
17092;DHT22;8661;45.700;4.880;2022-10-31T12:12:43;25.50;73.90
17092;DHT22;8661;45.700;4.880;2022-10-31T12:15:24;25.60;74.20
17092;DHT22;8661;45.700;4.880;2022-10-31T12:18:02;25.70;74.20
17092;DHT22;8661;45.700;4.880;2022-10-31T12:20:40;25.70;74.30
17092;DHT22;8661;45.700;4.880;2022-10-31T12:23:15;25.70;74.40
17092;DHT22;8661;45.700;4.880;2022-10-31T12:25:50;25.70;73.60
17092;DHT22;8661;45.700;4.880;2022-10-31T12:28:31;25.70;73.40
17092;DHT22;8661;45.700;4.880;2022-10-31T12:31:12;25.70;72.60
17092;DHT22;8661;45.700;4.880;2022-10-31T12:33:51;25.50;73.30
17092;DHT22;8661;45.700;4.880;2022-10-31T12:36:36;25.30;74.80
17092;DHT22;8661;45.700;4.880;2022-10-31T12:39:26;25.00;75.60
17092;DHT22;8661;45.700;4.880;2022-10-31T12:42:02;24.80;75.70
17092;DHT22;8661;45.700;4.880;2022-10-31T12:47:48;24.60;76.30
17092;DHT22;8661;45.700;4.880;2022-10-31T12:50:32;24.40;77.00
17092;DHT22;8661;45.700;4.880;2022-10-31T12:53:16;24.30;77.80
17092;DHT22;8661;45.700;4.880;2022-10-31T12:55:54;24.20;77.90
17092;DHT22;8661;45.700;4.880;2022-10-31T12:58:25;24.10;77.70
17092;DHT22;8661;45.700;4.880;2022-10-31T13:01:03;24.30;76.70
17092;DHT22;8661;45.700;4.880;2022-10-31T13:03:38;24.30;75.70
17092;DHT22;8661;45.700;4.880;2022-10-31T13:06:13;24.40;76.10
17092;DHT22;8661;45.700;4.880;2022-10-31T13:08:47;24.80;75.50
17092;DHT22;8661;45.700;4.880;2022-10-31T13:11:18;25.40;73.20
17092;DHT22;8661;45.700;4.880;2022-10-31T13:13:54;25.60;71.50
17092;DHT22;8661;45.700;4.880;2022-10-31T13:16:25;25.40;71.30
17092;DHT22;8661;45.700;4.880;2022-10-31T13:18:57;25.70;70.80
17092;DHT22;8661;45.700;4.880;2022-10-31T13:21:27;26.20;70.30
17092;DHT22;8661;45.700;4.880;2022-10-31T13:23:58;26.40;68.90
17092;DHT22;8661;45.700;4.880;2022-10-31T13:26:36;26.00;69.30
17092;DHT22;8661;45.700;4.880;2022-10-31T13:29:11;25.90;70.10
17092;DHT22;8661;45.700;4.880;2022-10-31T13:31:40;25.90;70.00
17092;DHT22;8661;45.700;4.880;2022-10-31T13:34:13;25.80;71.00
17092;DHT22;8661;45.700;4.880;2022-10-31T13:36:50;25.80;71.50
17092;DHT22;8661;45.700;4.880;2022-10-31T13:39:32;26.20;70.90
17092;DHT22;8661;45.700;4.880;2022-10-31T13:42:11;26.10;70.80
17092;DHT22;8661;45.700;4.880;2022-10-31T13:44:40;25.90;71.90
17092;DHT22;8661;45.700;4.880;2022-10-31T13:50:05;25.50;75.00
17092;DHT22;8661;45.700;4.880;2022-10-31T13:52:32;25.40;73.90
17092;DHT22;8661;45.700;4.880;2022-10-31T13:55:38;25.00;75.10
17092;DHT22;8661;45.700;4.880;2022-10-31T13:58:21;24.70;76.60
17092;DHT22;8661;45.700;4.880;2022-10-31T14:00:58;24.40;78.10
17092;DHT22;8661;45.700;4.880;2022-10-31T14:03:26;24.20;79.30
17092;DHT22;8661;45.700;4.880;2022-10-31T14:05:55;24.00;80.10
17092;DHT22;8661;45.700;4.880;2022-10-31T14:08:23;23.90;80.80
17092;DHT22;8661;45.700;4.880;2022-10-31T14:10:54;24.00;81.00
17092;DHT22;8661;45.700;4.880;2022-10-31T14:13:26;24.00;81.20
17092;DHT22;8661;45.700;4.880;2022-10-31T14:15:56;23.90;81.70
17092;DHT22;8661;45.700;4.880;2022-10-31T14:18:31;23.90;82.20
17092;DHT22;8661;45.700;4.880;2022-10-31T14:21:00;23.80;83.20
17092;DHT22;8661;45.700;4.880;2022-10-31T14:23:38;23.70;84.30
17092;DHT22;8661;45.700;4.880;2022-10-31T14:26:17;23.70;85.20
17092;DHT22;8661;45.700;4.880;2022-10-31T14:28:46;23.60;86.20
17092;DHT22;8661;45.700;4.880;2022-10-31T14:31:31;23.50;86.90
17092;DHT22;8661;45.700;4.880;2022-10-31T14:34:01;23.50;87.70
17092;DHT22;8661;45.700;4.880;2022-10-31T14:36:42;23.50;87.90
17092;DHT22;8661;45.700;4.880;2022-10-31T14:39:19;23.60;88.20
17092;DHT22;8661;45.700;4.880;2022-10-31T14:42:05;23.60;88.70
17092;DHT22;8661;45.700;4.880;2022-10-31T14:44:55;23.40;89.50
17092;DHT22;8661;45.700;4.880;2022-10-31T14:47:31;23.40;90.00
17092;DHT22;8661;45.700;4.880;2022-10-31T14:50:32;23.30;90.20
17092;DHT22;8661;45.700;4.880;2022-10-31T14:53:05;23.20;90.50
17092;DHT22;8661;45.700;4.880;2022-10-31T14:55:33;23.20;90.50
17092;DHT22;8661;45.700;4.880;2022-10-31T14:58:06;23.20;90.50
17092;DHT22;8661;45.700;4.880;2022-10-31T15:00:35;23.20;90.80
17092;DHT22;8661;45.700;4.880;2022-10-31T15:03:08;23.10;90.90
17092;DHT22;8661;45.700;4.880;2022-10-31T15:05:42;23.00;90.90
17092;DHT22;8661;45.700;4.880;2022-10-31T15:08:25;22.90;91.00
17092;DHT22;8661;45.700;4.880;2022-10-31T15:10:52;22.80;91.10
17092;DHT22;8661;45.700;4.880;2022-10-31T15:13:21;22.80;91.10
17092;DHT22;8661;45.700;4.880;2022-10-31T15:15:49;22.70;91.10
17092;DHT22;8661;45.700;4.880;2022-10-31T15:18:21;22.60;91.20
17092;DHT22;8661;45.700;4.880;2022-10-31T15:20:50;22.50;91.40
17092;DHT22;8661;45.700;4.880;2022-10-31T15:23:26;22.30;91.60
17092;DHT22;8661;45.700;4.880;2022-10-31T15:26:04;22.20;91.90
17092;DHT22;8661;45.700;4.880;2022-10-31T15:28:33;22.10;92.20
17092;DHT22;8661;45.700;4.880;2022-10-31T15:31:12;22.00;92.30
17092;DHT22;8661;45.700;4.880;2022-10-31T15:33:42;21.90;92.50
17092;DHT22;8661;45.700;4.880;2022-10-31T15:36:18;21.80;92.80
17092;DHT22;8661;45.700;4.880;2022-10-31T15:38:48;21.80;93.10
17092;DHT22;8661;45.700;4.880;2022-10-31T15:41:28;21.70;93.20
17092;DHT22;8661;45.700;4.880;2022-10-31T15:44:10;21.60;93.60
17092;DHT22;8661;45.700;4.880;2022-10-31T15:46:39;21.50;93.90
17092;DHT22;8661;45.700;4.880;2022-10-31T15:49:17;21.50;93.90
17092;DHT22;8661;45.700;4.880;2022-10-31T15:51:49;21.40;94.20
17092;DHT22;8661;45.700;4.880;2022-10-31T15:54:17;21.40;94.30
17092;DHT22;8661;45.700;4.880;2022-10-31T15:56:44;21.30;94.40
17092;DHT22;8661;45.700;4.880;2022-10-31T15:59:17;21.30;94.50
17092;DHT22;8661;45.700;4.880;2022-10-31T16:01:59;21.30;94.70
17092;DHT22;8661;45.700;4.880;2022-10-31T16:04:26;21.20;95.00
17092;DHT22;8661;45.700;4.880;2022-10-31T16:06:59;21.10;94.80
17092;DHT22;8661;45.700;4.880;2022-10-31T16:09:29;21.10;95.10
17092;DHT22;8661;45.700;4.880;2022-10-31T16:11:57;21.10;94.90
17092;DHT22;8661;45.700;4.880;2022-10-31T16:14:41;21.10;95.00
17092;DHT22;8661;45.700;4.880;2022-10-31T16:17:14;21.00;95.20
17092;DHT22;8661;45.700;4.880;2022-10-31T16:19:52;21.00;95.40
17092;DHT22;8661;45.700;4.880;2022-10-31T16:22:30;20.90;95.60
17092;DHT22;8661;45.700;4.880;2022-10-31T16:25:08;20.90;95.90